createdAt,value
2022-08-26T00:01:42.264Z,31.35
2022-08-26T00:04:11.972Z,32.15
2022-08-26T00:06:38.873Z,20.45
2022-08-26T00:09:09.804Z,22.98
2022-08-26T00:11:36.963Z,20.15
2022-08-26T00:14:03.706Z,31.85
2022-08-26T00:16:31.818Z,38.05
2022-08-26T00:18:58.897Z,26.23
2022-08-26T00:21:25.423Z,31.83
2022-08-26T00:23:52.069Z,24.17
2022-08-26T00:26:18.669Z,24.25
2022-08-26T00:28:47.433Z,28.83
2022-08-26T00:31:14.366Z,30.95
2022-08-26T00:33:41.047Z,24.25
2022-08-26T00:36:08.463Z,31.08
2022-08-26T00:38:46.896Z,34.50
2022-08-26T00:41:13.895Z,22.83
2022-08-26T00:43:47.737Z,29.05
2022-08-26T00:46:19.393Z,23.98
2022-08-26T00:48:48.123Z,26.75
2022-08-26T00:51:21.303Z,24.23
2022-08-26T00:53:55.378Z,21.75
2022-08-26T00:56:41.530Z,29.63
2022-08-26T00:59:11.901Z,23.00
2022-08-26T01:01:41.361Z,29.15
2022-08-26T01:04:09.753Z,27.20
2022-08-26T01:07:23.104Z,27.77
2022-08-26T01:09:49.853Z,26.38
2022-08-26T01:12:17.114Z,23.55
2022-08-26T01:14:49.772Z,20.30
2022-08-26T01:17:16.880Z,33.10
2022-08-26T01:19:48.831Z,37.08
2022-08-26T01:22:23.174Z,25.15
2022-08-26T01:24:55.067Z,24.48
2022-08-26T01:27:23.398Z,24.02
2022-08-26T01:29:51.585Z,30.02
2022-08-26T01:32:23.305Z,22.65
2022-08-26T01:34:50.469Z,28.63
2022-08-26T01:37:25.909Z,28.02
2022-08-26T01:39:55.253Z,34.17
2022-08-26T01:42:24.663Z,26.13
2022-08-26T01:44:56.108Z,37.13
2022-08-26T01:47:25.924Z,23.92
2022-08-26T01:49:55.915Z,31.08
2022-08-26T01:52:28.181Z,38.70
2022-08-26T01:54:57.308Z,36.08
2022-08-26T01:57:25.272Z,35.35
2022-08-26T01:59:54.622Z,28.35
2022-08-26T02:02:21.702Z,29.75
2022-08-26T02:04:58.267Z,39.15
2022-08-26T02:07:26.619Z,27.52
2022-08-26T02:09:53.864Z,26.70
2022-08-26T02:12:20.626Z,36.70
2022-08-26T02:14:52.121Z,23.52
2022-08-26T02:19:49.354Z,27.35
2022-08-26T02:22:19.702Z,32.58
2022-08-26T02:25:01.367Z,32.40
2022-08-26T02:27:32.902Z,29.20
2022-08-26T02:30:28.197Z,35.90
2022-08-26T02:32:55.088Z,35.42
2022-08-26T02:35:23.793Z,31.02
2022-08-26T02:37:52.407Z,27.08
2022-08-26T02:40:25.045Z,35.40
2022-08-26T02:42:53.143Z,30.05
2022-08-26T02:45:23.225Z,25.45
2022-08-26T02:47:51.234Z,28.85
2022-08-26T02:50:18.081Z,27.10
2022-08-26T02:52:44.573Z,26.95
2022-08-26T02:55:11.203Z,28.95
2022-08-26T02:57:37.827Z,36.70
2022-08-26T03:00:07.927Z,33.17
2022-08-26T03:02:34.809Z,29.98
2022-08-26T03:05:02.198Z,26.98
2022-08-26T03:07:29.980Z,32.05
2022-08-26T03:09:57.675Z,29.38
2022-08-26T03:12:24.237Z,30.40
2022-08-26T03:14:52.891Z,40.45
2022-08-26T03:17:19.475Z,29.23
2022-08-26T03:19:45.952Z,32.70
2022-08-26T03:22:12.434Z,32.45
2022-08-26T03:24:41.274Z,31.42
2022-08-26T03:27:12.857Z,28.88
2022-08-26T03:29:59.655Z,31.55
2022-08-26T03:32:26.989Z,34.50
2022-08-26T03:34:54.345Z,38.47
2022-08-26T03:37:21.610Z,42.92
2022-08-26T03:39:48.489Z,43.97
2022-08-26T03:42:15.139Z,36.42
2022-08-26T03:44:41.980Z,30.83
2022-08-26T03:47:09.020Z,42.95
2022-08-26T03:49:35.910Z,43.75
2022-08-26T03:52:03.608Z,39.00
2022-08-26T03:54:30.306Z,30.20
2022-08-26T03:56:56.799Z,44.75
2022-08-26T03:59:23.519Z,37.28
2022-08-26T04:01:51.130Z,33.97
2022-08-26T04:04:18.181Z,37.60
2022-08-26T04:06:50.175Z,23.15
2022-08-26T04:09:20.777Z,28.08
2022-08-26T04:11:50.738Z,39.83
2022-08-26T04:14:20.421Z,35.33
2022-08-26T04:16:47.576Z,48.38
2022-08-26T04:19:15.720Z,36.28
2022-08-26T04:21:42.599Z,44.67
2022-08-26T04:24:12.243Z,41.55
2022-08-26T04:26:42.867Z,34.65
2022-08-26T04:29:18.016Z,37.60
2022-08-26T04:31:46.898Z,35.60
2022-08-26T04:34:15.120Z,33.78
2022-08-26T04:36:43.080Z,30.48
2022-08-26T04:39:12.239Z,29.83
2022-08-26T04:41:39.585Z,37.83
2022-08-26T04:44:07.164Z,35.40
2022-08-26T04:46:33.913Z,32.08
2022-08-26T04:49:00.466Z,33.10
2022-08-26T04:51:30.039Z,28.20
2022-08-26T04:53:57.966Z,35.08
2022-08-26T04:56:26.618Z,36.17
2022-08-26T04:58:53.532Z,26.40
2022-08-26T05:01:21.362Z,29.25
2022-08-26T05:03:50.836Z,37.20
2022-08-26T05:06:19.386Z,40.70
2022-08-26T05:08:46.714Z,31.38
2022-08-26T05:11:13.523Z,39.13
2022-08-26T05:13:40.365Z,45.25
2022-08-26T05:16:11.563Z,33.45
2022-08-26T05:18:39.517Z,27.48
2022-08-26T05:21:07.435Z,38.05
2022-08-26T05:23:35.957Z,39.67
2022-08-26T05:26:02.501Z,42.17
2022-08-26T05:28:31.678Z,40.10
2022-08-26T05:30:58.675Z,30.55
2022-08-26T05:33:25.234Z,33.47
2022-08-26T05:35:51.865Z,43.35
2022-08-26T05:38:20.750Z,35.60
2022-08-26T05:40:52.909Z,38.28
2022-08-26T05:43:21.268Z,34.33
2022-08-26T05:45:49.986Z,33.60
2022-08-26T05:48:18.946Z,43.28
2022-08-26T05:50:52.237Z,39.95
2022-08-26T05:53:21.720Z,40.97
2022-08-26T05:55:52.258Z,30.15
2022-08-26T05:58:21.665Z,40.05
2022-08-26T06:01:00.674Z,35.97
2022-08-26T06:03:28.290Z,48.78
2022-08-26T06:05:55.258Z,31.02
2022-08-26T06:08:21.799Z,33.95
2022-08-26T06:10:49.060Z,33.10
2022-08-26T06:13:19.460Z,38.60
2022-08-26T06:15:48.760Z,41.58
2022-08-26T06:18:18.517Z,37.22
2022-08-26T06:20:57.427Z,42.45
2022-08-26T06:23:45.066Z,33.72
2022-08-26T06:26:12.493Z,35.70
2022-08-26T06:28:39.126Z,30.88
2022-08-26T06:31:06.222Z,34.90
2022-08-26T06:33:33.506Z,36.20
2022-08-26T06:36:01.118Z,33.83
2022-08-26T06:38:28.428Z,34.25
2022-08-26T06:40:55.401Z,42.03
2022-08-26T06:43:25.750Z,38.15
2022-08-26T06:45:59.696Z,37.10
2022-08-26T06:48:26.262Z,40.85
2022-08-26T06:51:04.238Z,56.08
2022-08-26T06:53:30.821Z,53.45
2022-08-26T06:55:57.355Z,44.47
2022-08-26T06:58:23.978Z,42.10
2022-08-26T07:00:51.256Z,39.05
2022-08-26T07:03:18.350Z,41.20
2022-08-26T07:05:44.893Z,50.08
2022-08-26T07:08:11.984Z,38.17
2022-08-26T07:10:38.759Z,34.28
2022-08-26T07:13:06.020Z,29.35
2022-08-26T07:15:36.170Z,39.65
2022-08-26T07:18:03.017Z,35.03
2022-08-26T07:20:29.571Z,37.80
2022-08-26T07:22:56.127Z,47.13
2022-08-26T07:25:22.640Z,43.25
2022-08-26T07:27:54.299Z,33.50
2022-08-26T07:30:21.475Z,36.00
2022-08-26T07:32:48.230Z,28.60
2022-08-26T07:35:15.037Z,36.65
2022-08-26T07:37:42.680Z,29.45
2022-08-26T07:40:09.605Z,36.30
2022-08-26T07:42:36.234Z,39.03
2022-08-26T07:45:02.868Z,37.70
2022-08-26T07:47:29.481Z,35.60
2022-08-26T07:49:57.557Z,37.58
2022-08-26T07:52:27.437Z,31.50
2022-08-26T07:54:56.369Z,43.17
2022-08-26T07:57:24.211Z,34.53
2022-08-26T07:59:51.057Z,35.08
2022-08-26T08:02:17.645Z,41.53
2022-08-26T08:04:44.296Z,35.90
2022-08-26T08:07:11.587Z,38.15
2022-08-26T08:09:38.612Z,34.13
2022-08-26T08:12:07.415Z,39.80
2022-08-26T08:14:36.428Z,40.45
2022-08-26T08:17:04.465Z,34.95
2022-08-26T08:19:36.698Z,42.10
2022-08-26T08:22:17.500Z,37.03
2022-08-26T08:24:44.835Z,53.08
2022-08-26T08:27:11.314Z,37.03
2022-08-26T08:29:38.683Z,39.60
2022-08-26T08:32:05.581Z,30.25
2022-08-26T08:34:37.939Z,37.75
2022-08-26T08:37:08.677Z,47.58
2022-08-26T08:39:37.246Z,46.33
2022-08-26T08:42:07.718Z,35.28
2022-08-26T08:44:39.853Z,34.28
2022-08-26T08:47:25.030Z,31.20
2022-08-26T08:49:54.585Z,32.63
2022-08-26T08:52:35.205Z,42.47
2022-08-26T08:55:11.044Z,35.70
2022-08-26T08:57:55.701Z,42.55
2022-08-26T09:00:39.858Z,38.67
2022-08-26T09:03:32.239Z,28.23
2022-08-26T09:06:01.599Z,28.92
2022-08-26T09:08:35.739Z,37.13
2022-08-26T09:11:04.371Z,43.08
2022-08-26T09:13:31.761Z,42.70
2022-08-26T09:16:07.286Z,40.17
2022-08-26T09:18:55.370Z,43.17
2022-08-26T09:21:25.274Z,35.55
2022-08-26T09:23:55.643Z,36.88
2022-08-26T09:26:38.468Z,46.47
2022-08-26T09:29:13.853Z,42.15
2022-08-26T09:31:41.424Z,40.75
2022-08-26T09:34:22.142Z,40.75
2022-08-26T09:36:59.587Z,29.20
2022-08-26T09:39:26.065Z,40.15
2022-08-26T09:42:25.580Z,43.55
2022-08-26T09:45:00.121Z,34.65
2022-08-26T09:47:46.749Z,52.17
2022-08-26T09:50:29.355Z,53.65
2022-08-26T09:53:20.991Z,41.50
2022-08-26T09:56:17.675Z,40.97
2022-08-26T09:58:47.264Z,34.72
2022-08-26T10:01:40.163Z,36.15
2022-08-26T10:04:27.112Z,40.25
2022-08-26T10:07:03.307Z,47.10
2022-08-26T10:09:40.522Z,44.22
2022-08-26T10:12:21.756Z,39.92
2022-08-26T10:14:54.400Z,41.08
2022-08-26T10:17:39.067Z,27.30
2022-08-26T10:20:23.308Z,50.80
2022-08-26T10:22:58.676Z,33.75
2022-08-26T10:25:33.182Z,34.22
2022-08-26T10:28:06.778Z,42.25
2022-08-26T10:30:58.261Z,44.80
2022-08-26T10:33:25.450Z,61.42
2022-08-26T10:36:05.264Z,38.42
2022-08-26T10:38:40.385Z,41.17
2022-08-26T10:41:16.810Z,37.00
2022-08-26T10:43:54.077Z,56.15
2022-08-26T10:46:27.115Z,44.40
2022-08-26T10:49:06.594Z,40.75
2022-08-26T10:51:42.023Z,35.75
2022-08-26T10:54:16.451Z,33.83
2022-08-26T10:57:30.522Z,33.83
2022-08-26T11:00:23.828Z,38.05
2022-08-26T11:03:03.205Z,52.10
2022-08-26T11:05:29.980Z,42.67
2022-08-26T11:08:21.592Z,38.75
2022-08-26T11:10:59.464Z,47.33
2022-08-26T11:13:57.207Z,44.25
2022-08-26T11:16:44.393Z,28.50
2022-08-26T11:19:59.560Z,44.28
2022-08-26T11:22:36.249Z,36.92
2022-08-26T11:25:07.710Z,50.17
2022-08-26T11:27:38.423Z,32.95
2022-08-26T11:30:15.755Z,38.60
2022-08-26T11:32:50.614Z,45.15
2022-08-26T11:35:17.186Z,38.67
2022-08-26T11:37:51.266Z,41.33
2022-08-26T11:40:22.212Z,40.33
2022-08-26T11:42:59.584Z,39.72
2022-08-26T11:46:00.822Z,36.70
2022-08-26T11:51:02.444Z,18.00
2022-08-26T11:53:32.541Z,11.25
2022-08-26T11:56:04.265Z,18.25
2022-08-26T11:58:31.936Z,12.90
2022-08-26T12:01:01.896Z,20.80
2022-08-26T12:03:38.818Z,13.00
2022-08-26T12:06:22.892Z,19.00
2022-08-26T12:08:50.300Z,17.50
2022-08-26T12:11:25.966Z,17.92
2022-08-26T12:14:25.998Z,11.80
2022-08-26T12:16:54.526Z,11.70
2022-08-26T12:19:33.463Z,16.25
2022-08-26T12:22:22.196Z,12.50
2022-08-26T12:24:53.595Z,13.38
2022-08-26T12:27:34.438Z,12.25
2022-08-26T12:30:13.877Z,9.02
2022-08-26T12:32:55.127Z,11.90
2022-08-26T12:35:25.697Z,10.90
2022-08-26T12:37:53.924Z,20.55
2022-08-26T12:40:44.007Z,12.50
2022-08-26T12:43:14.492Z,19.38
2022-08-26T12:45:59.872Z,24.60
2022-08-26T12:48:30.463Z,17.92
2022-08-26T12:50:58.059Z,31.17
2022-08-26T12:53:27.840Z,19.02
2022-08-26T12:56:01.489Z,13.82
2022-08-26T12:58:34.040Z,11.93
2022-08-26T13:01:00.626Z,10.88
2022-08-26T13:03:45.456Z,17.10
2022-08-26T13:06:22.176Z,10.68
2022-08-26T13:08:51.693Z,7.13
2022-08-26T13:11:44.932Z,10.88
2022-08-26T13:14:24.162Z,12.77
2022-08-26T13:16:51.986Z,17.27
2022-08-26T13:19:21.889Z,6.55
2022-08-26T13:21:54.719Z,15.50
2022-08-26T13:24:26.162Z,17.42
2022-08-26T13:29:19.458Z,23.70
2022-08-26T13:31:46.763Z,19.40
2022-08-26T13:34:18.005Z,23.55
2022-08-26T13:36:45.141Z,24.77
2022-08-26T13:39:12.055Z,18.08
2022-08-26T13:41:38.807Z,19.95
2022-08-26T13:44:05.982Z,17.38
2022-08-26T13:46:32.764Z,18.98
2022-08-26T13:48:59.499Z,17.92
2022-08-26T13:51:27.471Z,17.38
2022-08-26T13:53:54.420Z,15.63
2022-08-26T13:56:21.603Z,29.58
2022-08-26T13:58:48.221Z,23.05
2022-08-26T14:01:17.414Z,20.10
2022-08-26T14:03:44.030Z,17.80
2022-08-26T14:06:10.848Z,16.42
2022-08-26T14:08:38.972Z,12.30
2022-08-26T14:11:06.278Z,22.85
2022-08-26T14:13:32.816Z,22.00
2022-08-26T14:16:01.440Z,21.40
2022-08-26T14:18:33.338Z,14.77
2022-08-26T14:21:00.261Z,14.95
2022-08-26T14:23:27.633Z,11.40
2022-08-26T14:25:54.171Z,17.00
2022-08-26T14:28:20.738Z,21.63
2022-08-26T14:30:57.129Z,14.63
2022-08-26T14:33:27.239Z,21.38
2022-08-26T14:36:13.671Z,20.55
2022-08-26T14:38:40.144Z,22.50
2022-08-26T14:41:06.606Z,18.25
2022-08-26T14:43:33.550Z,18.45
2022-08-26T14:46:01.027Z,20.40
2022-08-26T14:48:27.512Z,19.80
2022-08-26T14:50:53.984Z,17.23
2022-08-26T14:53:38.767Z,40.17
2022-08-26T14:56:05.502Z,19.58
2022-08-26T14:58:34.918Z,29.13
2022-08-26T15:01:04.187Z,30.98
2022-08-26T15:03:30.943Z,21.52
2022-08-26T15:05:57.873Z,25.95
2022-08-26T15:08:24.459Z,27.52
2022-08-26T15:10:51.036Z,36.95
2022-08-26T15:13:17.506Z,27.27
2022-08-26T15:15:44.176Z,32.97
2022-08-26T15:18:10.846Z,27.73
2022-08-26T15:20:37.369Z,19.15
2022-08-26T15:23:06.463Z,18.50
2022-08-26T15:25:33.029Z,25.45
2022-08-26T15:27:59.521Z,18.98
2022-08-26T15:30:25.988Z,21.13
2022-08-26T15:32:52.571Z,23.17
2022-08-26T15:35:19.202Z,21.70
2022-08-26T15:37:45.715Z,24.85
2022-08-26T15:40:12.367Z,25.05
2022-08-26T15:42:39.368Z,22.50
2022-08-26T15:45:06.296Z,23.42
2022-08-26T15:47:32.837Z,21.20
2022-08-26T15:50:15.093Z,22.88
2022-08-26T15:52:41.933Z,25.55
2022-08-26T15:55:09.253Z,26.70
2022-08-26T15:57:35.822Z,27.88
2022-08-26T16:00:02.764Z,22.70
2022-08-26T16:02:32.201Z,22.23
2022-08-26T16:05:00.170Z,23.67
2022-08-26T16:07:26.649Z,28.90
2022-08-26T16:09:54.607Z,30.67
2022-08-26T16:12:21.730Z,29.98
2022-08-26T16:14:51.342Z,27.63
2022-08-26T16:17:19.453Z,26.83
2022-08-26T16:19:46.121Z,34.53
2022-08-26T16:22:12.719Z,27.98
2022-08-26T16:24:39.533Z,27.25
2022-08-26T16:27:05.993Z,28.92
2022-08-26T16:29:32.638Z,30.13
2022-08-26T16:31:59.106Z,31.60
2022-08-26T16:34:25.620Z,28.20
2022-08-26T16:36:52.152Z,26.13
2022-08-26T16:39:18.708Z,30.02
2022-08-26T16:41:45.271Z,24.08
2022-08-26T16:44:12.261Z,24.55
2022-08-26T16:46:39.696Z,29.77
2022-08-26T16:49:06.481Z,26.35
2022-08-26T16:51:37.831Z,27.08
2022-08-26T16:54:07.097Z,27.65
2022-08-26T16:56:34.540Z,32.45
2022-08-26T16:59:04.065Z,23.92
2022-08-26T17:01:30.541Z,24.30
2022-08-26T17:03:57.207Z,22.63
2022-08-26T17:06:23.845Z,27.27
2022-08-26T17:08:50.384Z,23.23
2022-08-26T17:11:17.033Z,25.52
2022-08-26T17:13:43.671Z,27.88
2022-08-26T17:16:14.481Z,21.83
2022-08-26T17:18:41.242Z,27.85
2022-08-26T17:21:10.332Z,27.38
2022-08-26T17:23:37.796Z,26.60
2022-08-26T17:26:04.873Z,20.73
2022-08-26T17:28:32.285Z,17.48
2022-08-26T17:30:59.526Z,22.77
2022-08-26T17:33:26.561Z,20.70
2022-08-26T17:35:53.769Z,26.20
2022-08-26T17:38:23.711Z,33.05
2022-08-26T17:40:50.298Z,27.88
2022-08-26T17:43:17.872Z,28.00
2022-08-26T17:45:44.407Z,29.38
2022-08-26T17:48:11.224Z,31.17
2022-08-26T17:50:41.399Z,31.58
2022-08-26T17:53:08.362Z,36.35
2022-08-26T17:55:41.606Z,31.83
2022-08-26T17:58:11.717Z,36.35
2022-08-26T18:00:50.921Z,33.15
2022-08-26T18:03:19.070Z,32.30
2022-08-26T18:05:50.757Z,35.75
2022-08-26T18:08:17.368Z,32.28
2022-08-26T18:10:44.701Z,37.80
2022-08-26T18:13:11.674Z,36.65
2022-08-26T18:15:39.732Z,35.08
2022-08-26T18:18:06.341Z,33.13
2022-08-26T18:20:32.854Z,34.78
2022-08-26T18:22:59.354Z,32.70
2022-08-26T18:25:26.026Z,37.28
2022-08-26T18:27:52.478Z,33.80
2022-08-26T18:30:21.179Z,38.30
2022-08-26T18:32:49.214Z,31.27
2022-08-26T18:35:16.431Z,32.53
2022-08-26T18:37:44.353Z,38.47
2022-08-26T18:40:13.444Z,38.30
2022-08-26T18:42:41.305Z,35.65
2022-08-26T18:45:08.726Z,39.70
2022-08-26T18:47:36.068Z,32.55
2022-08-26T18:50:04.502Z,39.42
2022-08-26T18:52:31.897Z,38.50
2022-08-26T18:54:59.452Z,40.38
2022-08-26T18:57:25.948Z,35.92
2022-08-26T18:59:52.419Z,32.03
2022-08-26T19:02:19.078Z,41.47
2022-08-26T19:04:45.629Z,48.58
2022-08-26T19:07:12.090Z,48.28
2022-08-26T19:09:38.582Z,37.70
2022-08-26T19:12:05.505Z,40.22
2022-08-26T19:14:32.490Z,41.25
2022-08-26T19:16:59.278Z,37.58
2022-08-26T19:19:25.873Z,37.13
2022-08-26T19:21:53.070Z,39.88
2022-08-26T19:24:20.980Z,49.50
2022-08-26T19:26:51.357Z,38.72
2022-08-26T19:29:31.907Z,44.92
2022-08-26T19:31:59.196Z,37.58
2022-08-26T19:34:26.254Z,43.88
2022-08-26T19:36:54.063Z,52.35
2022-08-26T19:39:21.285Z,38.13
2022-08-26T19:41:47.895Z,34.33
2022-08-26T19:44:39.425Z,39.10
2022-08-26T19:47:08.384Z,40.88
2022-08-26T19:49:35.425Z,36.75
2022-08-26T19:52:03.024Z,29.60
2022-08-26T19:54:29.943Z,39.03
2022-08-26T19:56:56.808Z,33.97
2022-08-26T19:59:23.347Z,38.53
2022-08-26T20:02:00.427Z,31.65
2022-08-26T20:04:27.868Z,30.30
2022-08-26T20:06:57.689Z,33.17
2022-08-26T20:09:25.331Z,34.28
2022-08-26T20:12:13.226Z,31.67
2022-08-26T20:14:39.756Z,34.47
2022-08-26T20:17:06.992Z,27.27
2022-08-26T20:19:53.097Z,24.52
2022-08-26T20:22:20.604Z,27.80
2022-08-26T20:24:48.437Z,30.15
2022-08-26T20:27:15.494Z,27.60
2022-08-26T20:29:43.022Z,31.95
2022-08-26T20:32:10.031Z,29.98
2022-08-26T20:34:38.087Z,28.98
2022-08-26T20:37:05.134Z,31.33
2022-08-26T20:39:31.611Z,28.35
2022-08-26T20:41:58.536Z,26.42
2022-08-26T20:44:25.817Z,28.98
2022-08-26T20:46:52.346Z,26.23
2022-08-26T20:49:19.064Z,28.40
2022-08-26T20:51:48.266Z,28.33
2022-08-26T20:54:15.459Z,20.30
2022-08-26T20:56:42.052Z,25.27
2022-08-26T20:59:09.346Z,20.30
2022-08-26T21:01:42.093Z,26.58
2022-08-26T21:04:12.654Z,20.90
2022-08-26T21:06:39.496Z,24.25
2022-08-26T21:09:10.799Z,23.35
2022-08-26T21:11:38.780Z,23.75
2022-08-26T21:14:06.922Z,21.90
2022-08-26T21:16:43.436Z,23.02
2022-08-26T21:19:13.049Z,25.55
2022-08-26T21:21:40.787Z,29.60
2022-08-26T21:24:08.145Z,24.70
2022-08-26T21:26:34.833Z,25.23
2022-08-26T21:29:01.639Z,22.23
2022-08-26T21:31:29.595Z,25.52
2022-08-26T21:33:56.525Z,21.40
2022-08-26T21:36:23.019Z,21.10
2022-08-26T21:38:49.586Z,20.50
2022-08-26T21:41:21.889Z,25.40
2022-08-26T21:43:50.131Z,24.73
2022-08-26T21:46:20.154Z,20.38
2022-08-26T21:48:50.979Z,17.20
2022-08-26T21:51:20.487Z,20.27
2022-08-26T21:53:47.184Z,20.17
2022-08-26T21:56:16.036Z,18.90
2022-08-26T21:58:42.730Z,17.58
2022-08-26T22:01:12.125Z,15.55
2022-08-26T22:03:46.797Z,21.90
2022-08-26T22:06:14.044Z,25.65
2022-08-26T22:08:40.516Z,23.27
2022-08-26T22:11:07.050Z,19.60
2022-08-26T22:13:37.848Z,17.77
2022-08-26T22:16:05.705Z,22.50
2022-08-26T22:18:32.843Z,24.15
2022-08-26T22:21:02.719Z,23.52
2022-08-26T22:23:30.242Z,21.58
2022-08-26T22:25:58.247Z,23.10
2022-08-26T22:28:25.115Z,20.75
2022-08-26T22:30:52.477Z,19.95
2022-08-26T22:33:19.325Z,21.60
2022-08-26T22:35:48.478Z,23.73
2022-08-26T22:38:15.593Z,24.52
2022-08-26T22:40:48.410Z,18.55
2022-08-26T22:43:15.278Z,19.85
2022-08-26T22:45:46.795Z,21.50
2022-08-26T22:50:43.340Z,21.17
2022-08-26T22:53:10.070Z,18.90
2022-08-26T22:55:36.796Z,17.10
2022-08-26T22:58:03.627Z,19.15
2022-08-26T23:00:32.426Z,17.33
2022-08-26T23:02:59.950Z,15.63
2022-08-26T23:05:26.510Z,16.35
2022-08-26T23:07:53.913Z,21.13
2022-08-26T23:10:20.727Z,17.75
2022-08-26T23:12:47.213Z,20.00
2022-08-26T23:15:13.818Z,18.73
2022-08-26T23:17:40.852Z,16.58
2022-08-26T23:20:11.613Z,19.05
2022-08-26T23:22:39.714Z,13.83
2022-08-26T23:25:08.351Z,19.33
2022-08-26T23:27:38.921Z,16.70
2022-08-26T23:30:07.867Z,18.80
2022-08-26T23:32:34.389Z,20.15
2022-08-26T23:35:00.919Z,16.33
2022-08-26T23:37:37.086Z,16.85
2022-08-26T23:40:10.876Z,14.32
2022-08-26T23:42:38.274Z,20.63
2022-08-26T23:45:09.985Z,19.38
2022-08-26T23:47:36.628Z,19.73
2022-08-26T23:50:04.195Z,16.23
2022-08-26T23:52:49.365Z,17.95
2022-08-26T23:55:15.840Z,21.92
2022-08-26T23:57:42.640Z,21.92
